createdAt,value
2023-04-10T00:02:28.692Z,10.90
2023-04-10T00:06:31.330Z,11.63
2023-04-10T00:10:33.009Z,12.23
2023-04-10T00:14:34.894Z,10.20
2023-04-10T00:18:36.489Z,10.60
2023-04-10T00:22:37.846Z,11.60
2023-04-10T00:26:38.967Z,11.33
2023-04-10T00:30:40.477Z,12.53
2023-04-10T00:34:41.655Z,12.00
2023-04-10T00:38:42.844Z,11.40
2023-04-10T00:42:44.046Z,12.40
2023-04-10T00:46:45.538Z,11.70
2023-04-10T00:50:46.936Z,11.20
2023-04-10T00:54:48.153Z,11.63
2023-04-10T00:58:49.651Z,12.20
2023-04-10T01:02:50.961Z,12.70
2023-04-10T01:07:02.459Z,13.07
2023-04-10T01:11:19.212Z,11.23
2023-04-10T01:15:26.337Z,12.90
2023-04-10T01:19:31.303Z,12.47
2023-04-10T01:23:42.642Z,12.37
2023-04-10T01:27:53.907Z,12.50
2023-04-10T01:32:10.627Z,12.93
2023-04-10T01:36:14.729Z,12.23
2023-04-10T01:40:19.143Z,12.53
2023-04-10T01:44:26.172Z,12.33
2023-04-10T01:48:27.563Z,12.03
2023-04-10T01:52:30.739Z,11.17
2023-04-10T01:56:32.646Z,11.40
2023-04-10T02:00:42.345Z,11.33
2023-04-10T02:04:45.434Z,11.37
2023-04-10T02:08:59.110Z,11.33
2023-04-10T02:13:03.071Z,12.40
2023-04-10T02:17:04.744Z,12.00
2023-04-10T02:21:06.798Z,10.63
2023-04-10T02:25:09.165Z,10.93
2023-04-10T02:29:10.340Z,11.83
2023-04-10T02:33:11.529Z,12.60
2023-04-10T02:37:13.221Z,11.97
2023-04-10T02:41:14.399Z,11.97
2023-04-10T02:45:15.749Z,11.33
2023-04-10T02:49:16.954Z,13.03
2023-04-10T02:53:19.233Z,12.10
2023-04-10T02:57:20.919Z,12.57
2023-04-10T03:01:22.875Z,12.10
2023-04-10T03:05:24.213Z,13.33
2023-04-10T03:09:25.692Z,12.53
2023-04-10T03:13:26.871Z,12.27
2023-04-10T03:17:28.150Z,13.23
2023-04-10T03:21:29.467Z,12.80
2023-04-10T03:25:31.556Z,12.53
2023-04-10T03:29:32.751Z,12.33
2023-04-10T03:33:33.996Z,11.73
2023-04-10T03:37:35.401Z,11.63
2023-04-10T03:41:36.585Z,13.43
2023-04-10T03:45:37.827Z,13.13
2023-04-10T03:49:39.003Z,13.77
2023-04-10T03:53:40.713Z,11.30
2023-04-10T03:57:41.865Z,13.40
2023-04-10T04:01:43.226Z,12.97
2023-04-10T04:05:44.438Z,12.20
2023-04-10T04:09:45.747Z,11.50
2023-04-10T04:13:46.905Z,12.53
2023-04-10T04:17:48.294Z,12.30
2023-04-10T04:21:49.483Z,12.37
2023-04-10T04:25:52.173Z,12.57
2023-04-10T04:29:53.373Z,12.23
2023-04-10T04:33:54.722Z,12.80
2023-04-10T04:37:56.049Z,12.47
2023-04-10T04:41:57.224Z,12.77
2023-04-10T04:45:59.055Z,12.30
2023-04-10T04:50:00.284Z,12.43
2023-04-10T04:54:02.232Z,13.53
2023-04-10T04:58:03.402Z,13.43
2023-04-10T05:02:04.818Z,13.23
2023-04-10T05:06:07.031Z,13.33
2023-04-10T05:10:08.666Z,13.13
2023-04-10T05:14:10.020Z,12.47
2023-04-10T05:18:13.249Z,12.50
2023-04-10T05:22:15.471Z,12.30
2023-04-10T05:26:17.449Z,13.53
2023-04-10T05:30:18.778Z,13.13
2023-04-10T05:34:20.167Z,14.20
2023-04-10T05:38:21.449Z,13.73
2023-04-10T05:42:23.881Z,12.57
2023-04-10T05:46:25.252Z,13.70
2023-04-10T05:50:26.916Z,13.07
2023-04-10T05:54:29.374Z,13.30
2023-04-10T05:58:30.649Z,14.57
2023-04-10T06:02:32.634Z,13.83
2023-04-10T06:06:33.884Z,12.47
2023-04-10T06:10:35.643Z,12.43
2023-04-10T06:14:36.837Z,12.43
2023-04-10T06:18:38.025Z,13.67
2023-04-10T06:22:39.207Z,12.03
2023-04-10T06:26:40.588Z,13.70
2023-04-10T06:30:41.780Z,12.20
2023-04-10T06:34:42.945Z,14.97
2023-04-10T06:38:44.336Z,12.60
2023-04-10T06:42:45.514Z,13.23
2023-04-10T06:46:46.789Z,14.17
2023-04-10T06:50:48.001Z,13.53
2023-04-10T06:54:49.294Z,14.10
2023-04-10T06:58:50.446Z,14.60
2023-04-10T07:02:51.677Z,14.70
2023-04-10T07:06:52.832Z,14.27
2023-04-10T07:10:54.005Z,14.87
2023-04-10T07:14:55.298Z,14.20
2023-04-10T07:18:56.917Z,14.27
2023-04-10T07:22:58.371Z,12.73
2023-04-10T07:27:00.966Z,14.37
2023-04-10T07:31:02.622Z,12.80
2023-04-10T07:35:04.763Z,13.73
2023-04-10T07:39:05.944Z,12.60
2023-04-10T07:43:07.110Z,15.80
2023-04-10T07:47:08.425Z,14.00
2023-04-10T07:51:09.915Z,12.40
2023-04-10T07:55:11.107Z,12.80
2023-04-10T07:59:12.481Z,15.07
2023-04-10T08:03:15.292Z,13.27
2023-04-10T08:07:21.007Z,14.37
2023-04-10T08:11:28.572Z,12.70
2023-04-10T08:15:29.762Z,13.20
2023-04-10T08:19:30.935Z,12.43
2023-04-10T08:23:32.136Z,12.90
2023-04-10T08:27:33.303Z,10.47
2023-04-10T08:31:35.268Z,11.80
2023-04-10T08:35:37.873Z,12.03
2023-04-10T08:39:39.072Z,11.93
2023-04-10T08:43:40.553Z,11.73
2023-04-10T08:47:53.469Z,10.77
2023-04-10T08:51:57.035Z,11.70
2023-04-10T08:56:01.021Z,9.87
2023-04-10T09:00:09.614Z,11.27
2023-04-10T09:04:06.459Z,10.07
2023-04-10T09:08:08.964Z,9.57
2023-04-10T09:12:11.754Z,8.57
2023-04-10T09:16:13.582Z,10.40
2023-04-10T09:20:23.550Z,8.93
2023-04-10T09:24:26.318Z,8.20
2023-04-10T09:28:27.492Z,8.83
2023-04-10T09:32:45.862Z,9.90
2023-04-10T09:36:56.290Z,7.83
2023-04-10T09:41:08.359Z,6.93
2023-04-10T09:45:09.701Z,7.20
2023-04-10T09:49:10.949Z,7.73
2023-04-10T09:53:14.226Z,7.23
2023-04-10T09:57:20.430Z,7.23
2023-04-10T10:01:23.015Z,6.60
2023-04-10T10:05:26.801Z,6.53
2023-04-10T10:09:29.390Z,6.70
2023-04-10T10:13:37.664Z,6.47
2023-04-10T10:18:01.181Z,6.20
2023-04-10T10:22:03.462Z,6.00
2023-04-10T10:26:06.653Z,5.60
2023-04-10T10:30:25.319Z,5.53
2023-04-10T10:34:16.468Z,5.33
2023-04-10T10:38:19.103Z,5.60
2023-04-10T10:42:35.811Z,5.60
2023-04-10T10:46:46.367Z,4.23
2023-04-10T10:50:54.237Z,4.63
2023-04-10T10:54:59.402Z,4.40
2023-04-10T10:58:58.335Z,4.37
2023-04-10T11:03:12.600Z,4.70
2023-04-10T11:07:15.293Z,3.80
2023-04-10T11:11:24.104Z,3.60
2023-04-10T11:15:25.619Z,3.70
2023-04-10T11:19:27.131Z,3.67
2023-04-10T11:23:28.629Z,4.27
2023-04-10T11:27:45.205Z,4.27
2023-04-10T11:31:49.097Z,4.67
2023-04-10T11:35:50.784Z,4.00
2023-04-10T11:39:55.694Z,3.57
2023-04-10T11:43:58.440Z,4.20
2023-04-10T11:47:59.832Z,3.70
2023-04-10T11:52:01.149Z,3.67
2023-04-10T11:56:08.965Z,3.30
2023-04-10T12:00:11.049Z,5.17
2023-04-10T12:04:20.208Z,4.07
2023-04-10T12:08:37.620Z,3.57
2023-04-10T12:12:38.927Z,7.63
2023-04-10T12:16:41.490Z,3.40
2023-04-10T12:20:44.238Z,3.63
2023-04-10T12:24:47.413Z,3.30
2023-04-10T12:28:56.503Z,3.87
2023-04-10T12:32:59.548Z,3.10
2023-04-10T12:37:02.401Z,3.50
2023-04-10T12:41:04.570Z,3.40
2023-04-10T12:45:09.356Z,3.30
2023-04-10T12:49:18.745Z,3.40
2023-04-10T12:53:19.860Z,3.50
2023-04-10T12:57:27.949Z,3.03
2023-04-10T13:01:29.366Z,3.10
2023-04-10T13:05:30.745Z,3.60
2023-04-10T13:09:32.010Z,3.07
2023-04-10T13:13:33.170Z,2.80
2023-04-10T13:17:34.588Z,3.30
2023-04-10T13:21:35.766Z,3.17
2023-04-10T13:25:39.028Z,3.70
2023-04-10T13:29:42.149Z,3.20
2023-04-10T13:33:48.187Z,2.60
2023-04-10T13:37:51.306Z,2.67
2023-04-10T13:41:52.433Z,3.17
2023-04-10T13:45:53.613Z,2.90
2023-04-10T13:49:54.797Z,4.70
2023-04-10T13:53:56.005Z,2.77
2023-04-10T13:57:57.179Z,2.20
2023-04-10T14:01:58.450Z,2.03
2023-04-10T14:05:59.757Z,2.40
2023-04-10T14:10:01.754Z,2.03
2023-04-10T14:14:02.923Z,2.10
2023-04-10T14:18:04.214Z,2.60
2023-04-10T14:22:05.837Z,2.07
2023-04-10T14:26:07.145Z,2.00
2023-04-10T14:30:10.549Z,1.93
2023-04-10T14:34:11.735Z,2.47
2023-04-10T14:38:13.190Z,2.67
2023-04-10T14:42:14.380Z,2.10
2023-04-10T14:46:16.647Z,2.07
2023-04-10T14:50:18.100Z,1.80
2023-04-10T14:54:21.170Z,1.80
2023-04-10T14:58:22.348Z,1.93
2023-04-10T15:02:23.645Z,2.03
2023-04-10T15:06:26.950Z,5.07
2023-04-10T15:10:29.926Z,1.97
2023-04-10T15:14:31.285Z,2.10
2023-04-10T15:18:32.508Z,1.97
2023-04-10T15:22:34.947Z,2.33
2023-04-10T15:26:36.203Z,2.27
2023-04-10T15:30:37.406Z,2.20
2023-04-10T15:34:38.670Z,2.40
2023-04-10T15:38:39.861Z,2.23
2023-04-10T15:42:41.066Z,2.60
2023-04-10T15:46:43.129Z,2.00
2023-04-10T15:50:44.416Z,2.50
2023-04-10T15:54:45.618Z,2.57
2023-04-10T15:58:46.919Z,2.57
2023-04-10T16:02:48.363Z,5.67
2023-04-10T16:06:50.035Z,4.30
2023-04-10T16:10:52.405Z,2.70
2023-04-10T16:14:53.564Z,2.60
2023-04-10T16:18:57.470Z,2.30
2023-04-10T16:23:00.144Z,2.67
2023-04-10T16:27:01.642Z,2.70
2023-04-10T16:31:02.849Z,2.90
2023-04-10T16:35:05.020Z,2.30
2023-04-10T16:39:08.137Z,3.00
2023-04-10T16:43:10.515Z,2.23
2023-04-10T16:47:12.145Z,3.13
2023-04-10T16:51:17.127Z,3.00
2023-04-10T16:55:18.675Z,2.30
2023-04-10T16:59:20.001Z,2.60
2023-04-10T17:03:21.399Z,2.50
2023-04-10T17:07:23.166Z,2.70
2023-04-10T17:11:24.395Z,2.50
2023-04-10T17:15:25.572Z,2.80
2023-04-10T17:19:26.747Z,2.40
2023-04-10T17:23:28.600Z,2.60
2023-04-10T17:27:29.888Z,2.67
2023-04-10T17:31:31.100Z,2.33
2023-04-10T17:35:32.270Z,24.70
2023-04-10T17:39:33.455Z,16.03
2023-04-10T17:43:35.054Z,2.67
2023-04-10T17:47:36.309Z,2.70
2023-04-10T17:51:39.500Z,2.70
2023-04-10T17:55:40.807Z,2.27
2023-04-10T17:59:41.975Z,2.33
2023-04-10T18:03:44.199Z,2.53
2023-04-10T18:07:46.536Z,3.57
2023-04-10T18:11:49.535Z,2.90
2023-04-10T18:15:50.707Z,3.40
2023-04-10T18:19:52.489Z,3.50
2023-04-10T18:23:54.074Z,3.13
2023-04-10T18:28:12.989Z,3.13
2023-04-10T18:31:58.460Z,3.70
2023-04-10T18:35:59.752Z,3.47
2023-04-10T18:40:09.902Z,3.80
2023-04-10T18:44:05.747Z,3.83
2023-04-10T18:48:08.532Z,4.30
2023-04-10T18:52:09.792Z,4.00
2023-04-10T18:56:10.972Z,4.10
2023-04-10T19:00:13.047Z,4.07
2023-04-10T19:04:14.962Z,4.07
2023-04-10T19:08:18.258Z,3.50
2023-04-10T19:12:19.545Z,3.73
2023-04-10T19:16:20.922Z,3.50
2023-04-10T19:20:52.741Z,3.87
2023-04-10T19:24:25.131Z,3.80
2023-04-10T19:28:26.348Z,4.10
2023-04-10T19:32:27.576Z,3.20
2023-04-10T19:36:28.726Z,3.83
2023-04-10T19:40:31.196Z,3.70
2023-04-10T19:44:37.356Z,3.83
2023-04-10T19:48:38.524Z,3.27
2023-04-10T19:52:39.789Z,3.40
2023-04-10T19:56:41.870Z,3.57
2023-04-10T20:00:43.071Z,4.17
2023-04-10T20:04:47.103Z,3.67
2023-04-10T20:08:47.282Z,3.70
2023-04-10T20:12:48.892Z,3.63
2023-04-10T20:16:50.332Z,3.57
2023-04-10T20:20:51.766Z,3.57
2023-04-10T20:24:53.002Z,3.80
2023-04-10T20:28:55.154Z,4.20
2023-04-10T20:32:56.835Z,3.50
2023-04-10T20:36:58.621Z,3.60
2023-04-10T20:40:59.795Z,3.63
2023-04-10T20:45:03.329Z,3.93
2023-04-10T20:49:04.599Z,3.67
2023-04-10T20:53:05.947Z,2.97
2023-04-10T20:57:09.074Z,3.87
2023-04-10T21:01:10.601Z,3.33
2023-04-10T21:05:12.002Z,3.70
2023-04-10T21:09:13.232Z,3.40
2023-04-10T21:13:15.617Z,3.20
2023-04-10T21:17:18.482Z,4.10
2023-04-10T21:21:19.703Z,3.97
2023-04-10T21:25:21.208Z,3.83
2023-04-10T21:29:22.413Z,3.23
2023-04-10T21:33:23.605Z,3.70
2023-04-10T21:37:25.018Z,3.80
2023-04-10T21:41:29.151Z,3.93
2023-04-10T21:45:33.306Z,3.20
2023-04-10T21:49:34.575Z,3.80
2023-04-10T21:53:35.948Z,2.93
2023-04-10T21:57:37.167Z,3.60
2023-04-10T22:01:40.435Z,3.30
2023-04-10T22:05:42.384Z,3.43
2023-04-10T22:09:43.608Z,3.20
2023-04-10T22:13:44.798Z,3.87
2023-04-10T22:17:46.163Z,3.40
2023-04-10T22:21:47.382Z,3.30
2023-04-10T22:25:48.590Z,3.37
2023-04-10T22:30:02.230Z,4.00
2023-04-10T22:33:54.273Z,3.70
2023-04-10T22:37:56.326Z,3.80
2023-04-10T22:41:57.545Z,3.63
2023-04-10T22:45:58.774Z,3.67
2023-04-10T22:50:00.070Z,4.43
2023-04-10T22:54:01.369Z,4.03
2023-04-10T22:58:02.698Z,3.90
2023-04-10T23:02:04.158Z,3.73
2023-04-10T23:06:05.974Z,3.70
2023-04-10T23:10:08.399Z,4.70
2023-04-10T23:14:10.622Z,5.40
2023-04-10T23:18:13.665Z,4.60
2023-04-10T23:22:14.882Z,4.17
2023-04-10T23:26:16.099Z,4.63
2023-04-10T23:30:17.237Z,4.70
2023-04-10T23:34:20.256Z,5.20
2023-04-10T23:38:21.835Z,5.00
2023-04-10T23:42:23.010Z,3.70
2023-04-10T23:46:24.312Z,4.17
2023-04-10T23:50:25.461Z,4.13
2023-04-10T23:54:26.811Z,4.57
2023-04-10T23:58:28.240Z,4.50
